Time;durP1;ratioP1;P1;durP2;ratioP2;P2;SDS_P1;SDS_P2;PMS_P1;PMS_P2;Temp;Humidity;BMP_temperature;BMP_pressure;BME280_temperature;BME280_humidity;BME280_pressure;Samples;Min_cycle;Max_cycle;Signal;HPM_P1;HPM_P2
2022/04/04 00:00:04;;;;;;;26.27;13.37;;;;;;;5.24;88.82;99210.63;5035776;28;20408;-86
2022/04/04 00:02:29;;;;;;;22.80;13.47;;;;;;;6.47;89.20;99440.06;5035627;28;20177;-88
2022/04/04 00:04:54;;;;;;;22.50;12.33;;;;;;;5.18;89.37;99262.94;5035493;28;20757;-87
2022/04/04 00:07:20;;;;;;;23.77;12.87;;;;;;;4.03;89.44;99079.28;5035342;28;20227;-87
2022/04/04 00:09:46;;;;;;;24.23;12.10;;;;;;;5.43;89.22;99300.44;5052607;28;20213;-87
2022/04/04 00:12:12;;;;;;;25.30;12.40;;;;;;;6.68;88.40;99537.69;5035127;28;20619;-88
2022/04/04 00:14:37;;;;;;;24.40;12.30;;;;;;;5.49;87.12;99351.03;5035094;28;20444;-87
2022/04/04 00:17:03;;;;;;;24.70;13.37;;;;;;;4.58;86.35;99203.91;5051303;28;20180;-87
2022/04/04 00:19:29;;;;;;;28.90;14.10;;;;;;;4.67;85.59;99194.44;5053398;28;20414;-87
2022/04/04 00:21:54;;;;;;;28.30;14.00;;;;;;;5.57;85.56;99376.63;5051510;28;20927;-87
2022/04/04 00:24:20;;;;;;;22.93;11.47;;;;;;;4.62;85.97;99203.31;5034760;28;20183;-87
2022/04/04 00:26:46;;;;;;;30.27;12.93;;;;;;;5.61;86.74;99403.63;5034598;28;20176;-87
2022/04/04 00:29:11;;;;;;;29.17;14.73;;;;;;;5.79;86.74;99427.41;5051079;28;20292;-87
2022/04/04 00:31:37;;;;;;;24.70;11.87;;;;;;;6.34;88.27;99525.59;5052615;28;20438;-87
2022/04/04 00:34:02;;;;;;;28.10;14.27;;;;;;;4.22;89.64;99194.91;5051581;28;20172;-87
2022/04/04 00:36:28;;;;;;;17.67;9.73;;;;;;;5.78;89.85;99453.28;5037631;28;20176;-87
2022/04/04 00:38:53;;;;;;;21.57;10.10;;;;;;;4.48;88.91;99241.66;5071576;28;20168;-87
2022/04/04 00:41:19;;;;;;;19.77;11.23;;;;;;;6.30;89.11;99543.75;5053590;28;20200;-86
2022/04/04 00:43:45;;;;;;;24.23;12.77;;;;;;;6.37;90.22;99540.00;5055952;28;20162;-86
2022/04/04 00:46:11;;;;;;;25.63;14.47;;;;;;;6.11;90.14;99497.25;5054222;28;20161;-87
2022/04/04 00:48:36;;;;;;;22.43;12.17;;;;;;;4.40;89.41;99195.19;5035159;28;20200;-87
2022/04/04 00:51:03;;;;;;;19.90;10.83;;;;;;;5.06;90.34;99334.03;5053569;28;20408;-86
2022/04/04 00:53:30;;;;;;;22.07;10.87;;;;;;;5.72;89.18;99430.28;5052874;28;20176;-85
2022/04/04 00:55:56;;;;;;;19.93;10.80;;;;;;;4.87;88.61;99299.38;5034602;28;20416;-87
2022/04/04 00:58:22;;;;;;;19.87;11.17;;;;;;;6.29;88.06;99533.63;5034420;28;20503;-87
2022/04/04 01:00:49;;;;;;;22.80;12.30;;;;;;;6.39;87.43;99529.25;5052373;28;20166;-87
2022/04/04 01:03:15;;;;;;;19.03;10.37;;;;;;;5.66;87.78;99425.75;5034402;28;20798;-88
2022/04/04 01:05:44;;;;;;;19.57;9.87;;;;;;;5.59;89.06;99415.22;5034746;28;20791;-88
2022/04/04 01:08:12;;;;;;;21.33;10.77;;;;;;;4.03;89.51;99152.78;5051168;28;20451;-87
2022/04/04 01:10:39;;;;;;;25.37;13.20;;;;;;;5.54;89.61;99421.63;5035391;28;20793;-87
2022/04/04 01:13:04;;;;;;;21.73;12.33;;;;;;;4.42;89.47;99252.16;5054301;28;20400;-85
2022/04/04 01:15:32;;;;;;;25.30;12.87;;;;;;;4.94;89.96;99334.13;5039292;28;20853;-86
2022/04/04 01:18:01;;;;;;;27.80;12.30;;;;;;;5.21;90.85;99386.06;5036467;28;20236;-86
2022/04/04 01:20:26;;;;;;;25.37;12.27;;;;;;;5.69;91.69;99453.56;5051953;28;20486;-87
2022/04/04 01:22:52;;;;;;;24.07;11.43;;;;;;;6.00;93.06;99535.94;5034173;28;20443;-87
2022/04/04 01:25:23;;;;;;;26.87;13.77;;;;;;;3.95;93.06;99178.97;5036429;28;20183;-86
2022/04/04 01:27:48;;;;;;;29.90;15.37;;;;;;;5.32;94.31;99435.31;5056988;28;20154;-86
2022/04/04 01:30:14;;;;;;;25.43;12.80;;;;;;;3.22;94.71;99109.75;5058224;28;20828;-87
2022/04/04 01:32:39;;;;;;;25.47;13.63;;;;;;;6.05;94.72;99552.16;5066868;28;20155;-86
2022/04/04 01:35:05;;;;;;;25.93;12.47;;;;;;;6.05;94.88;99560.56;5066161;28;20161;-87
2022/04/04 01:37:31;;;;;;;27.47;13.17;;;;;;;4.11;94.76;99235.91;5054004;28;20563;-88
2022/04/04 01:39:57;;;;;;;24.57;13.33;;;;;;;3.01;94.48;99046.69;5053498;28;20622;-86
2022/04/04 01:42:22;;;;;;;22.87;11.57;;;;;;;5.24;95.56;99459.03;5051421;28;20192;-86
2022/04/04 01:44:47;;;;;;;20.77;9.57;;;;;;;2.98;95.97;99096.47;5034487;28;20176;-87
2022/04/04 01:47:13;;;;;;;25.83;13.33;;;;;;;4.52;94.74;99336.34;5035731;28;20195;-87
2022/04/04 01:49:39;;;;;;;25.73;13.63;;;;;;;4.25;94.81;99304.47;5056156;28;20185;-87
2022/04/04 01:52:05;;;;;;;25.80;13.03;;;;;;;4.45;94.01;99329.22;5034223;28;20194;-86
2022/04/04 01:54:30;;;;;;;20.27;11.23;;;;;;;5.93;92.39;99579.91;5032976;28;20806;-86
2022/04/04 01:56:56;;;;;;;21.57;11.50;;;;;;;4.04;91.85;99254.66;5050932;28;20174;-86
2022/04/04 01:59:22;;;;;;;23.63;11.47;;;;;;;5.05;93.84;99453.59;5032911;28;20196;-87
2022/04/04 02:01:47;;;;;;;23.33;10.53;;;;;;;4.11;94.59;99303.53;5033121;28;20227;-86
2022/04/04 02:04:13;;;;;;;21.97;11.33;;;;;;;4.78;95.11;99436.69;5033098;28;20809;-86
2022/04/04 02:06:39;;;;;;;19.93;10.87;;;;;;;3.12;94.81;99132.41;5049654;28;20263;-87
2022/04/04 02:09:05;;;;;;;22.73;12.87;;;;;;;5.62;95.66;99593.72;5049501;28;20596;-87
2022/04/04 02:11:31;;;;;;;28.37;13.33;;;;;;;3.51;95.29;99217.69;5049841;28;20407;-87
2022/04/04 02:13:58;;;;;;;25.67;12.03;;;;;;;5.29;93.51;99555.59;5065827;28;20422;-86
2022/04/04 02:16:25;;;;;;;19.20;10.10;;;;;;;4.85;91.22;99453.91;5074905;28;20160;-86
2022/04/04 02:18:50;;;;;;;20.20;10.47;;;;;;;4.31;89.18;99350.84;5026680;28;20875;-86
2022/04/04 02:21:16;;;;;;;15.93;8.10;;;;;;;4.81;87.44;99441.91;5017869;28;20531;-87
2022/04/04 02:23:42;;;;;;;18.70;9.97;;;;;;;3.93;86.31;99303.16;5017148;28;20166;-87
2022/04/04 02:26:07;;;;;;;18.43;10.50;;;;;;;4.08;84.80;99310.84;5033750;28;20599;-86
2022/04/04 02:28:33;;;;;;;16.77;10.00;;;;;;;4.88;84.00;99441.56;5017173;28;20447;-86
2022/04/04 02:30:59;;;;;;;16.13;8.60;;;;;;;5.62;83.18;99569.47;5016985;28;20178;-89
2022/04/04 02:33:25;;;;;;;16.83;9.13;;;;;;;3.08;82.89;99145.50;5025414;28;20582;-86
2022/04/04 02:35:52;;;;;;;12.30;7.67;;;;;;;5.57;82.59;99577.47;5033238;28;20422;-86
2022/04/04 02:38:20;;;;;;;19.47;9.87;;;;;;;5.64;82.58;99587.16;5017000;28;20852;-86
2022/04/04 02:40:46;;;;;;;19.43;10.73;;;;;;;5.56;81.79;99605.84;5018850;28;20913;-86
2022/04/04 02:43:11;;;;;;;17.13;8.43;;;;;;;4.81;80.72;99468.66;5047770;28;20403;-86
2022/04/04 02:45:37;;;;;;;17.60;9.97;;;;;;;5.14;79.37;99521.91;5051254;28;20296;-87
2022/04/04 02:48:03;;;;;;;14.17;7.23;;;;;;;3.88;78.85;99321.16;5022753;28;20235;-86
2022/04/04 02:50:29;;;;;;;16.17;9.13;;;;;;;5.63;78.24;99608.03;5038398;28;20219;-86
2022/04/04 02:52:55;;;;;;;13.83;8.23;;;;;;;5.12;77.59;99515.06;5034480;28;20676;-87
2022/04/04 02:58:05;;;;;;;16.60;8.30;;;;;;;5.80;77.43;99604.94;5044360;28;20188;-87
2022/04/04 03:00:30;;;;;;;15.10;8.77;;;;;;;4.41;77.10;99354.81;5038912;28;20413;-87
2022/04/04 03:02:57;;;;;;;15.90;8.23;;;;;;;3.09;76.89;99164.72;5044674;28;20575;-88
2022/04/04 03:05:23;;;;;;;15.33;7.53;;;;;;;5.34;76.49;99506.56;5043362;28;20265;-85
2022/04/04 03:07:50;;;;;;;16.70;7.93;;;;;;;4.25;77.21;99319.50;5039171;28;20418;-87
2022/04/04 03:10:16;;;;;;;14.70;7.77;;;;;;;4.31;76.54;99332.44;5034002;28;20399;-87
2022/04/04 03:12:42;;;;;;;16.23;9.90;;;;;;;3.01;76.70;99101.69;5017458;28;20650;-86
2022/04/04 03:15:15;;;;;;;17.53;9.70;;;;;;;5.95;77.00;99593.44;5036527;28;20230;-86
2022/04/04 03:17:45;;;;;;;15.47;7.50;;;;;;;5.91;77.16;99596.50;5034116;28;20529;-87
2022/04/04 03:20:15;;;;;;;15.37;9.20;;;;;;;3.79;76.03;99240.44;5016369;28;20409;-86
2022/04/04 03:22:47;;;;;;;18.87;10.77;;;;;;;5.44;76.85;99530.59;5034361;28;20447;-86
2022/04/04 03:25:14;;;;;;;16.13;8.40;;;;;;;5.80;76.81;99607.47;5033629;28;20466;-87
2022/04/04 03:27:41;;;;;;;14.63;8.77;;;;;;;5.71;76.62;99602.72;5014943;28;20501;-86
2022/04/04 03:30:10;;;;;;;14.73;8.33;;;;;;;5.90;75.69;99610.72;5033688;28;20964;-86
2022/04/04 03:32:35;;;;;;;17.93;9.27;;;;;;;4.17;75.55;99317.31;5033966;28;20433;-87
2022/04/04 03:35:04;;;;;;;10.10;6.13;;;;;;;4.50;75.25;99386.41;5032742;28;20409;-86
2022/04/04 03:37:30;;;;;;;17.97;6.97;;;;;;;4.36;74.79;99362.03;5032433;28;20196;-87
2022/04/04 03:39:56;;;;;;;13.73;7.20;;;;;;;5.27;75.96;99516.94;5015517;28;20452;-87
2022/04/04 03:42:21;;;;;;;14.57;7.97;;;;;;;4.55;75.44;99394.22;5016444;28;20413;-86
2022/04/04 03:44:47;;;;;;;13.00;7.53;;;;;;;5.59;75.49;99569.28;5033420;28;20185;-86
2022/04/04 03:47:12;;;;;;;15.23;7.40;;;;;;;4.58;75.58;99411.97;5018143;28;20166;-86
2022/04/04 03:49:38;;;;;;;18.43;9.47;;;;;;;5.90;75.92;99627.44;5046797;28;20250;-85
2022/04/04 03:52:05;;;;;;;14.93;7.60;;;;;;;4.38;76.34;99389.69;5052694;28;20169;-86
2022/04/04 03:54:31;;;;;;;14.53;7.73;;;;;;;5.82;75.63;99633.56;5021698;28;20415;-87
2022/04/04 03:56:57;;;;;;;15.90;7.30;;;;;;;5.78;75.36;99634.13;5035125;28;20422;-86
2022/04/04 03:59:23;;;;;;;12.40;7.53;;;;;;;4.92;74.77;99513.72;5033622;28;20175;-88
2022/04/04 04:01:49;;;;;;;15.67;8.97;;;;;;;4.51;74.71;99414.81;5016036;28;20495;-86
2022/04/04 04:04:15;;;;;;;16.07;8.40;;;;;;;3.55;74.85;99234.63;5037566;28;20439;-87
2022/04/04 04:06:40;;;;;;;11.20;6.47;;;;;;;5.13;73.97;99512.69;5015561;28;20213;-88
2022/04/04 04:09:05;;;;;;;16.23;8.93;;;;;;;5.14;74.16;99524.44;5031794;28;20182;-87
2022/04/04 04:11:31;;;;;;;18.13;9.17;;;;;;;4.42;74.00;99384.13;5015525;28;20646;-88
2022/04/04 04:13:57;;;;;;;14.90;8.03;;;;;;;6.08;73.54;99690.56;5033616;28;20204;-86
2022/04/04 04:16:23;;;;;;;10.63;6.80;;;;;;;4.53;73.19;99410.78;5033537;28;20166;-87
2022/04/04 04:18:49;;;;;;;13.80;7.53;;;;;;;5.17;73.35;99554.75;5031800;28;20563;-88
2022/04/04 04:21:15;;;;;;;11.80;6.37;;;;;;;5.21;73.84;99535.75;5015917;28;20962;-87
2022/04/04 04:23:42;;;;;;;12.13;6.13;;;;;;;5.26;73.53;99560.41;5031620;28;20170;-87
2022/04/04 04:26:08;;;;;;;13.53;7.67;;;;;;;4.87;74.03;99495.00;5031894;28;20413;-87
2022/04/04 04:28:35;;;;;;;12.70;7.13;;;;;;;4.94;73.77;99511.34;5033178;28;20834;-87
2022/04/04 04:31:00;;;;;;;14.30;7.67;;;;;;;5.35;73.94;99583.59;5015078;28;20421;-86
2022/04/04 04:33:26;;;;;;;16.63;8.27;;;;;;;4.10;74.28;99352.75;5015321;28;20413;-87
2022/04/04 04:35:51;;;;;;;16.87;8.70;;;;;;;4.61;74.12;99452.28;5037198;28;20177;-85
2022/04/04 04:38:17;;;;;;;19.97;10.03;;;;;;;6.06;74.14;99684.59;5037234;28;20303;-88
2022/04/04 04:40:43;;;;;;;20.40;10.83;;;;;;;5.69;73.38;99605.88;5061823;28;20710;-87
2022/04/04 04:43:09;;;;;;;14.03;6.33;;;;;;;6.10;73.48;99720.06;5034279;28;20169;-88
2022/04/04 04:45:34;;;;;;;19.87;9.57;;;;;;;5.33;73.14;99577.59;5058666;28;20176;-86
2022/04/04 04:48:00;;;;;;;21.17;9.47;;;;;;;5.90;73.21;99670.16;5074357;28;20169;-87
2022/04/04 04:50:27;;;;;;;19.50;9.77;;;;;;;3.33;73.31;99246.44;5037959;28;20178;-87
2022/04/04 04:52:54;;;;;;;17.90;8.20;;;;;;;6.09;73.68;99707.41;5015056;28;20166;-89
2022/04/04 04:55:21;;;;;;;14.50;7.27;;;;;;;5.38;73.77;99611.38;5014801;28;20467;-88
2022/04/04 04:57:47;;;;;;;12.23;7.10;;;;;;;2.01;73.82;99068.81;5050644;28;20416;-86
2022/04/04 05:00:16;;;;;;;25.43;14.07;;;;;;;6.14;74.28;99723.66;5033836;28;20430;-85
2022/04/04 05:02:42;;;;;;;20.57;10.00;;;;;;;5.20;74.25;99537.41;5034233;28;20502;-87
2022/04/04 05:05:08;;;;;;;14.37;8.37;;;;;;;5.40;74.71;99603.97;5051864;28;20400;-86
2022/04/04 05:07:33;;;;;;;16.40;9.00;;;;;;;4.35;74.75;99417.03;5052045;28;20635;-86
2022/04/04 05:09:59;;;;;;;17.30;10.00;;;;;;;5.59;74.48;99609.44;5051520;28;20440;-87
2022/04/04 05:12:24;;;;;;;13.00;8.33;;;;;;;5.18;75.15;99541.44;5062324;28;20173;-86
2022/04/04 05:14:49;;;;;;;21.50;10.80;;;;;;;3.50;75.78;99301.88;5064400;28;20194;-85
2022/04/04 05:17:15;;;;;;;20.03;10.47;;;;;;;4.32;76.12;99424.34;5052942;28;20220;-86
2022/04/04 05:19:41;;;;;;;14.80;7.67;;;;;;;6.10;75.32;99719.22;5056866;28;20162;-86
2022/04/04 05:22:07;;;;;;;16.30;9.07;;;;;;;4.76;74.50;99495.91;5039015;28;20231;-86
2022/04/04 05:24:34;;;;;;;14.97;8.90;;;;;;;6.38;74.53;99728.63;5052204;28;20433;-86
2022/04/04 05:26:59;;;;;;;12.37;7.23;;;;;;;6.14;75.39;99741.25;5050200;28;20200;-87
2022/04/04 05:29:26;;;;;;;8.43;5.20;;;;;;;4.86;74.77;99535.91;5055024;28;20443;-88
2022/04/04 05:31:53;;;;;;;11.57;6.63;;;;;;;4.76;74.53;99528.50;5051919;28;20176;-87
2022/04/04 05:34:20;;;;;;;10.30;5.13;;;;;;;4.78;74.03;99501.06;5033446;28;20438;-87
2022/04/04 05:36:45;;;;;;;18.07;9.20;;;;;;;5.29;74.30;99607.41;5030323;28;20412;-85
2022/04/04 05:39:10;;;;;;;14.53;8.17;;;;;;;3.86;74.58;99388.66;5025514;28;20471;-85
2022/04/04 05:41:36;;;;;;;13.83;8.43;;;;;;;5.83;74.78;99693.94;5029856;28;20733;-85
2022/04/04 05:44:03;;;;;;;13.83;7.93;;;;;;;4.77;75.45;99480.13;5020206;28;20176;-85
2022/04/04 05:46:28;;;;;;;12.93;7.23;;;;;;;4.76;75.49;99486.75;5027203;28;20170;-85
2022/04/04 05:48:53;;;;;;;14.40;7.67;;;;;;;6.36;74.24;99760.38;5047374;28;20456;-85
2022/04/04 05:51:19;;;;;;;22.93;10.23;;;;;;;4.48;74.23;99409.59;5039613;28;20185;-86
2022/04/04 05:53:44;;;;;;;15.63;8.27;;;;;;;5.22;74.64;99533.34;5040454;28;20173;-86
2022/04/04 05:56:10;;;;;;;18.33;10.40;;;;;;;4.85;73.89;99403.75;5037599;28;20681;-86
2022/04/04 05:58:36;;;;;;;16.50;8.00;;;;;;;6.01;73.79;99649.13;5036176;28;20174;-86
2022/04/04 06:01:03;;;;;;;14.93;8.73;;;;;;;5.38;72.40;99551.16;5019731;28;20236;-87
2022/04/04 06:03:28;;;;;;;13.93;8.17;;;;;;;4.49;71.33;99407.19;5042293;28;20405;-87
2022/04/04 06:05:54;;;;;;;14.80;8.33;;;;;;;6.76;71.29;99767.97;5024990;28;20425;-85
2022/04/04 06:08:20;;;;;;;14.10;8.50;;;;;;;5.83;72.14;99547.38;5026062;28;20193;-85
2022/04/04 06:10:46;;;;;;;14.23;8.33;;;;;;;4.97;70.71;99411.22;5051908;28;20177;-86
2022/04/04 06:13:18;;;;;;;15.33;8.53;;;;;;;5.78;69.52;99533.66;5055616;28;20400;-87
2022/04/04 06:15:44;;;;;;;14.07;7.20;;;;;;;7.53;69.02;99760.25;5023705;28;20162;-85
2022/04/04 06:18:11;;;;;;;20.00;11.10;;;;;;;5.88;68.61;99488.28;5040036;28;20470;-86
2022/04/04 06:20:36;;;;;;;15.00;9.03;;;;;;;6.87;67.43;99618.53;5039596;28;20404;-84
2022/04/04 06:23:04;;;;;;;18.37;10.70;;;;;;;7.24;67.74;99654.38;5040291;28;20523;-87
2022/04/04 06:25:30;;;;;;;10.87;6.90;;;;;;;7.69;66.01;99773.88;5040836;28;20158;-86
2022/04/04 06:27:55;;;;;;;8.83;4.77;;;;;;;6.74;64.94;99638.69;5042933;28;20400;-86
2022/04/04 06:30:22;;;;;;;13.37;7.03;;;;;;;5.20;65.05;99375.91;5055374;28;20434;-86
2022/04/04 06:32:48;;;;;;;18.00;9.17;;;;;;;5.33;65.76;99340.78;5063799;28;20291;-85
2022/04/04 06:35:14;;;;;;;19.87;10.17;;;;;;;6.27;63.86;99443.00;5082625;28;20411;-86
2022/04/04 06:37:41;;;;;;;25.77;12.57;;;;;;;7.92;64.07;99770.22;5078396;28;20188;-86
2022/04/04 06:40:08;;;;;;;10.90;5.97;;;;;;;5.72;63.88;99416.09;5039610;28;20518;-86
2022/04/04 06:42:37;;;;;;;11.90;7.03;;;;;;;8.10;62.98;99790.63;5043733;28;20474;-86
2022/04/04 06:45:04;;;;;;;11.93;6.90;;;;;;;6.61;63.64;99560.75;5054234;28;20898;-87
2022/04/04 06:47:30;;;;;;;17.60;9.93;;;;;;;7.76;62.78;99786.84;5024204;28;20427;-86
2022/04/04 06:49:56;;;;;;;12.33;5.50;;;;;;;7.56;61.98;99730.22;5053398;28;20860;-87
2022/04/04 06:52:22;;;;;;;10.23;5.90;;;;;;;7.81;62.21;99783.84;5037777;28;20432;-87
2022/04/04 06:54:48;;;;;;;22.53;9.30;;;;;;;7.98;62.56;99799.97;5039174;28;20273;-85
2022/04/04 06:57:15;;;;;;;20.73;10.20;;;;;;;8.03;63.97;99796.94;5042010;28;20220;-85
2022/04/04 06:59:41;;;;;;;21.90;11.53;;;;;;;8.49;63.50;99799.72;5070660;28;20450;-85
2022/04/04 07:02:07;;;;;;;36.30;16.57;;;;;;;9.09;63.99;99803.16;5035368;28;20264;-87
2022/04/04 07:04:32;;;;;;;18.43;11.17;;;;;;;8.69;61.65;99699.09;5037368;28;20220;-86
2022/04/04 07:06:58;;;;;;;17.37;9.67;;;;;;;8.03;62.55;99645.69;5022838;28;20636;-86
2022/04/04 07:09:23;;;;;;;15.00;8.10;;;;;;;7.48;62.41;99581.16;5036900;28;20205;-87
2022/04/04 07:11:51;;;;;;;11.43;6.33;;;;;;;6.75;62.31;99517.16;5051696;28;20231;-87
2022/04/04 07:14:20;;;;;;;14.53;8.50;;;;;;;8.59;62.98;99790.22;5054386;28;20185;-86
2022/04/04 07:16:45;;;;;;;12.63;7.67;;;;;;;7.47;61.52;99579.41;5026860;28;20794;-86
2022/04/04 07:19:15;;;;;;;12.53;6.50;;;;;;;7.78;61.29;99617.31;5033478;28;20339;-86
2022/04/04 07:21:42;;;;;;;11.27;6.47;;;;;;;7.35;61.39;99571.16;5039565;28;20573;-87
2022/04/04 07:24:07;;;;;;;11.60;7.40;;;;;;;8.20;62.27;99689.53;5035089;28;20239;-87
2022/04/04 07:26:33;;;;;;;9.37;5.87;;;;;;;8.96;61.30;99777.13;5038004;28;20523;-86
2022/04/04 07:28:58;;;;;;;13.20;7.40;;;;;;;8.76;61.16;99733.97;5035527;28;20224;-87
2022/04/04 07:31:24;;;;;;;12.77;8.00;;;;;;;7.22;59.99;99490.66;5043932;28;20185;-86
2022/04/04 07:33:49;;;;;;;12.87;7.53;;;;;;;7.49;60.27;99504.81;5063445;28;20187;-86
2022/04/04 07:36:14;;;;;;;10.20;5.83;;;;;;;7.82;61.18;99603.25;5054410;28;20533;-86
2022/04/04 07:38:40;;;;;;;11.13;6.30;;;;;;;7.90;60.62;99602.03;5034398;28;20720;-86
2022/04/04 07:41:06;;;;;;;11.77;6.33;;;;;;;9.45;60.49;99805.19;5059263;28;20560;-88
2022/04/04 07:43:31;;;;;;;13.20;7.93;;;;;;;9.07;60.78;99745.78;5052741;28;20225;-86
2022/04/04 07:45:57;;;;;;;15.83;9.20;;;;;;;7.67;60.42;99462.16;5069375;28;20188;-85
2022/04/04 07:48:23;;;;;;;11.23;6.77;;;;;;;8.74;59.54;99591.69;5027171;28;20206;-87
2022/04/04 07:50:48;;;;;;;21.30;11.33;;;;;;;8.70;57.59;99486.34;5023884;28;20197;-88
2022/04/04 07:53:14;;;;;;;27.73;10.17;;;;;;;9.05;57.19;99581.56;5038739;28;20715;-88
2022/04/04 07:55:40;;;;;;;11.67;6.47;;;;;;;9.47;56.87;99671.34;5038067;28;20200;-88
2022/04/04 07:58:05;;;;;;;9.23;5.77;;;;;;;9.10;56.12;99649.97;5046362;28;20182;-87
2022/04/04 08:00:31;;;;;;;12.30;6.70;;;;;;;9.95;57.35;99817.13;5029093;28;20185;-87
2022/04/04 08:02:57;;;;;;;11.70;6.97;;;;;;;7.99;56.45;99484.09;5039293;28;20204;-86
2022/04/04 08:05:23;;;;;;;12.30;6.53;;;;;;;10.00;56.33;99805.59;5025449;28;20178;-86
2022/04/04 08:07:51;;;;;;;19.40;9.03;;;;;;;10.49;56.11;99817.47;5048487;28;20181;-85
2022/04/04 08:10:17;;;;;;;14.87;9.17;;;;;;;10.12;55.29;99707.56;5052452;28;20196;-85
2022/04/04 08:12:42;;;;;;;23.43;10.83;;;;;;;10.67;54.54;99744.09;5046495;28;20583;-88
2022/04/04 08:15:09;;;;;;;23.80;11.17;;;;;;;10.28;52.96;99618.13;5049037;28;20228;-85
2022/04/04 08:17:34;;;;;;;15.30;10.23;;;;;;;11.17;54.77;99813.25;5033840;28;20221;-86
2022/04/04 08:20:00;;;;;;;37.67;20.07;;;;;;;11.08;52.13;99645.59;5035420;28;20195;-87
2022/04/04 08:22:26;;;;;;;14.17;8.60;;;;;;;11.72;52.33;99816.72;5032291;28;20193;-89
2022/04/04 08:24:51;;;;;;;10.93;6.03;;;;;;;9.66;53.19;99575.47;5051958;28;20193;-86
2022/04/04 08:27:17;;;;;;;9.57;6.30;;;;;;;11.75;50.92;99795.72;5051678;28;20181;-89
2022/04/04 08:29:42;;;;;;;34.93;16.37;;;;;;;12.51;50.31;99816.81;5040255;28;20367;-90
2022/04/04 08:32:08;;;;;;;16.53;9.97;;;;;;;8.53;52.99;99339.91;5044400;28;20185;-87
2022/04/04 08:34:33;;;;;;;14.00;8.97;;;;;;;10.91;51.58;99603.44;5034543;28;20192;-88
2022/04/04 08:36:59;;;;;;;12.10;6.60;;;;;;;11.80;51.56;99794.25;5051320;28;20738;-86
2022/04/04 08:39:25;;;;;;;18.23;10.67;;;;;;;10.57;51.37;99541.94;5036993;28;20229;-87
2022/04/04 08:41:55;;;;;;;11.23;7.13;;;;;;;12.23;50.54;99787.72;5031087;28;20239;-87
2022/04/04 08:44:21;;;;;;;13.47;7.10;;;;;;;11.97;51.07;99787.38;5052661;28;20223;-88
2022/04/04 08:46:47;;;;;;;13.57;7.70;;;;;;;12.57;50.41;99786.59;5045706;28;20268;-88
2022/04/04 08:49:13;;;;;;;16.37;8.83;;;;;;;12.89;48.98;99783.72;5037973;28;20292;-87
2022/04/04 08:51:41;;;;;;;11.40;7.60;;;;;;;12.63;48.93;99663.28;5032232;28;20212;-86
2022/04/04 08:54:07;;;;;;;12.63;8.03;;;;;;;11.30;48.05;99487.75;5070622;28;20181;-87
2022/04/04 08:56:32;;;;;;;15.43;8.70;;;;;;;11.95;47.44;99574.19;5062708;28;20201;-88
2022/04/04 08:58:58;;;;;;;10.37;6.97;;;;;;;12.52;46.43;99521.44;5062135;28;20223;-88
2022/04/04 09:01:25;;;;;;;8.23;5.30;;;;;;;11.55;46.39;99564.03;5038546;28;20185;-90
2022/04/04 09:04:10;;;;;;;12.37;6.30;;;;;;;12.21;46.80;99699.63;5037651;28;20288;-88
2022/04/04 09:07:07;;;;;;;15.80;10.40;;;;;;;13.90;45.74;99746.13;5052980;28;20204;-87
2022/04/04 09:09:46;;;;;;;9.30;6.47;;;;;;;12.26;45.37;99600.00;4953231;29;20232;-88
2022/04/04 09:12:20;;;;;;;9.33;6.30;;;;;;;11.05;46.79;99490.91;4955591;28;20204;-88
2022/04/04 09:15:06;;;;;;;9.30;6.63;;;;;;;13.50;44.28;99649.66;4953268;29;20207;-87
2022/04/04 09:17:34;;;;;;;22.27;11.87;;;;;;;13.86;44.15;99727.31;4958902;28;20231;-87
2022/04/04 09:20:08;;;;;;;12.77;8.70;;;;;;;14.08;43.33;99729.81;4953675;28;20193;-88
2022/04/04 09:22:33;;;;;;;9.90;6.63;;;;;;;13.20;41.98;99532.47;4952437;29;20196;-89
2022/04/04 09:25:02;;;;;;;8.73;6.67;;;;;;;13.84;41.61;99616.97;4952726;28;20180;-88
2022/04/04 09:27:34;;;;;;;11.90;6.77;;;;;;;14.35;40.67;99630.59;4951477;29;20200;-86
2022/04/04 09:30:03;;;;;;;9.17;5.83;;;;;;;13.95;41.37;99712.34;4952605;29;20800;-87
2022/04/04 09:32:43;;;;;;;12.97;7.97;;;;;;;14.29;40.00;99561.59;4937121;29;20208;-87
2022/04/04 09:35:12;;;;;;;22.70;15.67;;;;;;;14.88;38.86;99726.59;4952521;29;20184;-88
2022/04/04 09:37:40;;;;;;;17.37;12.43;;;;;;;14.70;38.47;99601.97;4942374;29;20581;-86
2022/04/04 09:40:06;;;;;;;13.13;7.73;;;;;;;15.24;37.72;99691.16;4929898;29;20717;-85
2022/04/04 09:42:32;;;;;;;13.27;8.23;;;;;;;13.21;39.06;99526.56;4950881;28;20200;-88
2022/04/04 09:45:09;;;;;;;8.87;6.80;;;;;;;14.94;38.88;99690.22;4961083;28;20713;-88
2022/04/04 09:47:45;;;;;;;7.97;5.90;;;;;;;15.66;37.65;99679.63;5043917;28;20181;-87
2022/04/04 09:50:44;;;;;;;7.87;5.90;;;;;;;13.38;37.96;99360.19;5029080;28;20212;-88
2022/04/04 09:53:22;;;;;;;8.90;5.70;;;;;;;14.45;39.64;99675.06;5028599;28;20185;-87
2022/04/04 09:55:57;;;;;;;9.77;7.10;;;;;;;12.62;40.67;99509.16;5040536;28;20188;-89
2022/04/04 09:58:25;;;;;;;9.37;6.77;;;;;;;14.58;39.34;99660.22;5024233;28;20585;-90
2022/04/04 10:00:50;;;;;;;8.90;6.00;;;;;;;14.44;38.14;99488.25;5034315;28;20200;-88
2022/04/04 10:03:17;;;;;;;8.80;5.90;;;;;;;14.06;39.03;99555.75;5040695;28;20180;-88
2022/04/04 10:05:45;;;;;;;8.20;5.33;;;;;;;15.28;38.51;99644.47;5032910;28;20181;-89
2022/04/04 10:08:15;;;;;;;10.07;6.00;;;;;;;15.72;37.71;99650.84;5052044;28;20272;-89
2022/04/04 10:10:42;;;;;;;6.37;5.40;;;;;;;14.45;36.67;99349.84;5036411;28;20193;-88
2022/04/04 10:13:09;;;;;;;8.20;5.60;;;;;;;15.10;35.77;99364.34;5027090;28;20190;-87
2022/04/04 10:15:36;;;;;;;8.17;6.03;;;;;;;16.41;36.41;99644.16;5032706;28;20181;-88
2022/04/04 10:18:02;;;;;;;6.87;5.27;;;;;;;15.47;36.44;99541.28;5032369;28;20222;-89
2022/04/04 10:20:28;;;;;;;8.07;5.97;;;;;;;15.58;36.11;99482.06;5051265;28;20347;-87
2022/04/04 10:22:54;;;;;;;9.07;5.27;;;;;;;16.10;35.78;99639.97;5034423;28;20650;-89
2022/04/04 10:25:25;;;;;;;6.97;4.90;;;;;;;16.51;34.89;99641.84;5052300;28;20203;-89
2022/04/04 10:27:52;;;;;;;12.40;7.40;;;;;;;15.26;35.88;99404.69;5035152;28;20181;-87
2022/04/04 10:30:29;;;;;;;10.60;6.73;;;;;;;14.61;35.21;99330.75;5054093;28;20681;-89
2022/04/04 10:32:55;;;;;;;7.27;5.43;;;;;;;14.35;36.80;99441.25;5043600;28;20181;-89
2022/04/04 10:35:28;;;;;;;22.63;11.93;;;;;;;14.42;36.96;99410.88;5039089;28;20197;-88
2022/04/04 10:38:05;;;;;;;10.17;6.40;;;;;;;16.31;36.21;99627.75;5052160;28;20197;-88
2022/04/04 10:40:33;;;;;;;7.97;5.80;;;;;;;15.66;35.14;99470.34;5028087;28;20647;-87
2022/04/04 10:43:22;;;;;;;7.37;5.70;;;;;;;14.95;36.36;99368.16;5030117;28;20200;-90
2022/04/04 10:45:59;;;;;;;11.27;6.97;;;;;;;16.80;34.94;99604.22;5056063;28;20180;-87
2022/04/04 10:48:31;;;;;;;9.20;6.37;;;;;;;16.60;35.31;99605.44;5031956;28;20350;-88
2022/04/04 10:51:17;;;;;;;14.63;7.40;;;;;;;16.20;36.36;99600.19;5041876;28;20181;-87
2022/04/04 10:53:57;;;;;;;14.40;8.00;;;;;;;15.03;36.45;99425.31;5055396;28;20188;-87
2022/04/04 10:56:24;;;;;;;10.43;7.07;;;;;;;16.59;35.77;99593.47;5027556;28;20204;-89
2022/04/04 10:58:52;;;;;;;8.10;6.30;;;;;;;16.33;35.80;99574.97;5046735;28;20166;-88
2022/04/04 11:01:20;;;;;;;8.40;6.40;;;;;;;16.70;35.24;99586.06;5052277;28;20189;-88
2022/04/04 11:03:52;;;;;;;8.33;6.20;;;;;;;16.57;35.64;99579.81;5035970;28;20263;-88
2022/04/04 11:09:15;;;;;;;9.63;6.70;;;;;;;17.37;34.24;99581.53;5044881;28;20236;-85
2022/04/04 11:11:55;;;;;;;8.57;5.77;;;;;;;16.23;34.53;99452.97;5053621;28;20669;-87
2022/04/04 11:14:37;;;;;;;10.03;6.80;;;;;;;17.45;34.74;99586.78;5050443;28;20545;-86
2022/04/04 11:17:08;;;;;;;8.77;6.77;;;;;;;17.46;34.59;99579.16;5037197;28;20186;-87
2022/04/04 11:19:57;;;;;;;12.00;7.20;;;;;;;16.94;35.11;99576.38;5029579;28;20189;-86
2022/04/04 11:22:33;;;;;;;7.43;5.90;;;;;;;16.37;34.24;99397.91;5022687;28;20186;-85
2022/04/04 11:25:05;;;;;;;7.13;5.90;;;;;;;15.62;34.37;99255.88;5047662;28;20238;-86
2022/04/04 11:27:36;;;;;;;11.60;7.63;;;;;;;15.93;34.79;99391.00;5050704;28;20228;-87
2022/04/04 11:30:05;;;;;;;9.47;6.40;;;;;;;15.54;35.68;99401.16;5049706;28;20212;-86
2022/04/04 11:32:34;;;;;;;10.60;7.90;;;;;;;14.48;36.16;99299.00;5061692;28;20208;-86
2022/04/04 11:35:09;;;;;;;9.57;6.40;;;;;;;16.33;36.08;99548.56;5019101;28;20235;-86